Time;durP1;ratioP1;P1;durP2;ratioP2;P2;SDS_P1;SDS_P2;PMS_P1;PMS_P2;Temp;Humidity;BMP_temperature;BMP_pressure;BME280_temperature;BME280_humidity;BME280_pressure;Samples;Min_cycle;Max_cycle;Signal;HPM_P1;HPM_P2
2023/03/30 00:01:00;;;;;;;;;;;;;;;11.04;95.34;96562.19;5063280;28;19917;-71
2023/03/30 00:03:26;;;;;;;;;;;;;;;11.04;96.29;96569.66;5056408;28;19928;-73
2023/03/30 00:05:55;;;;;;;;;;;;;;;11.05;97.21;96558.28;5062054;28;20288;-72
2023/03/30 00:08:21;;;;;;;;;;;;;;;10.94;97.19;96551.88;5053955;28;20029;-72
2023/03/30 00:10:46;;;;;;;;;;;;;;;10.89;96.34;96555.75;5043663;28;19975;-72
2023/03/30 00:13:13;;;;;;;;;;;;;;;10.88;96.37;96547.91;5059173;28;19917;-72
2023/03/30 00:15:38;;;;;;;;;;;;;;;10.89;96.33;96538.50;5061507;28;20009;-73
2023/03/30 00:18:04;;;;;;;;;;;;;;;10.89;96.00;96524.81;5068768;28;19917;-71
2023/03/30 00:20:31;;;;;;;;;;;;;;;10.81;96.91;96523.16;5085030;28;20380;-73
2023/03/30 00:22:56;;;;;;;;;;;;;;;10.86;96.31;96520.09;5083698;28;19954;-71
2023/03/30 00:25:22;;;;;;;;;;;;;;;10.80;96.90;96511.38;5077273;28;20320;-71
2023/03/30 00:27:47;;;;;;;;;;;;;;;10.80;96.98;96508.66;5070062;28;20368;-73
2023/03/30 00:30:14;;;;;;;;;;;;;;;10.88;96.55;96506.81;5038470;28;20361;-70
2023/03/30 00:32:40;;;;;;;;;;;;;;;10.94;96.21;96504.53;5061356;28;19916;-72
2023/03/30 00:35:05;;;;;;;;;;;;;;;10.97;95.79;96503.78;5056307;28;19920;-70
2023/03/30 00:37:31;;;;;;;;;;;;;;;10.95;96.04;96512.38;5056151;28;20594;-71
2023/03/30 00:39:56;;;;;;;;;;;;;;;10.93;96.40;96506.47;5050828;28;20328;-73
2023/03/30 00:42:22;;;;;;;;;;;;;;;10.90;97.09;96504.47;5059465;28;20824;-71
2023/03/30 00:45:06;;;;;;;;;;;;;;;10.92;97.41;96517.81;5065967;28;19917;-73
2023/03/30 00:47:37;;;;;;;;;;;;;;;10.93;97.60;96511.97;5064748;28;19920;-72
2023/03/30 00:50:03;;;;;;;;;;;;;;;10.97;97.36;96506.53;5065421;28;19936;-70
2023/03/30 00:52:29;;;;;;;;;;;;;;;10.85;98.05;96508.31;5049250;28;19917;-73
2023/03/30 00:54:56;;;;;;;;;;;;;;;10.82;98.31;96500.88;5065147;28;19920;-70
2023/03/30 00:57:22;;;;;;;;;;;;;;;10.83;98.57;96505.19;5059522;28;19925;-72
2023/03/30 00:59:49;;;;;;;;;;;;;;;10.84;98.51;96495.81;5046911;28;20365;-72
2023/03/30 01:02:15;;;;;;;;;;;;;;;10.80;98.97;96494.94;5060346;28;19917;-71
2023/03/30 01:04:41;;;;;;;;;;;;;;;10.81;99.83;96476.59;5064720;28;19962;-71
2023/03/30 01:07:11;;;;;;;;;;;;;;;10.79;100.00;96482.44;5059776;28;19928;-71
2023/03/30 01:09:37;;;;;;;;;;;;;;;10.76;100.00;96479.66;5064716;28;19920;-71
2023/03/30 01:12:04;;;;;;;;;;;;;;;10.65;100.00;96474.03;5061286;28;19917;-70
2023/03/30 01:14:29;;;;;;;;;;;;;;;10.69;100.00;96470.16;5064331;28;19962;-71
2023/03/30 01:17:00;;;;;;;;;;;;;;;10.65;100.00;96465.84;5064329;28;19947;-71
2023/03/30 01:19:47;;;;;;;;;;;;;;;10.69;100.00;96466.66;5056956;28;20286;-72
2023/03/30 01:22:36;;;;;;;;;;;;;;;10.52;100.00;96470.75;5060745;28;19969;-73
2023/03/30 01:25:14;;;;;;;;;;;;;;;10.38;100.00;96459.63;5074205;28;20005;-71
2023/03/30 01:28:03;;;;;;;;;;;;;;;10.25;100.00;96465.28;5064466;28;19927;-72
2023/03/30 01:30:42;;;;;;;;;;;;;;;10.21;100.00;96463.66;5024286;28;19916;-73
2023/03/30 01:33:36;;;;;;;;;;;;;;;10.20;100.00;96460.13;5060563;28;19920;-71
2023/03/30 01:36:02;;;;;;;;;;;;;;;9.91;100.00;96470.66;5062951;28;19927;-70
2023/03/30 01:38:46;;;;;;;;;;;;;;;10.17;100.00;96451.88;5061665;28;19920;-72
2023/03/30 01:41:30;;;;;;;;;;;;;;;10.17;100.00;96469.06;5059605;28;19916;-72
2023/03/30 01:44:05;;;;;;;;;;;;;;;10.09;100.00;96449.03;5066477;28;19920;-71
2023/03/30 01:46:33;;;;;;;;;;;;;;;10.13;100.00;96465.50;5047956;28;20305;-71
2023/03/30 01:49:09;;;;;;;;;;;;;;;9.98;100.00;96461.78;5033197;28;19924;-73
2023/03/30 01:51:39;;;;;;;;;;;;;;;10.02;100.00;96465.34;5063601;28;19916;-72
2023/03/30 01:54:11;;;;;;;;;;;;;;;10.00;100.00;96466.88;5056288;28;19960;-70
2023/03/30 01:57:05;;;;;;;;;;;;;;;9.94;100.00;96466.41;5063995;28;20011;-70
2023/03/30 01:59:53;;;;;;;;;;;;;;;9.93;100.00;96460.13;5048025;28;19924;-72
2023/03/30 02:02:20;;;;;;;;;;;;;;;10.00;100.00;96469.63;5058853;28;20019;-71
2023/03/30 02:04:47;;;;;;;;;;;;;;;10.02;100.00;96472.78;5065765;28;19920;-72
2023/03/30 02:07:18;;;;;;;;;;;;;;;10.07;100.00;96469.72;5058483;28;19916;-71
2023/03/30 02:09:44;;;;;;;;;;;;;;;10.05;100.00;96466.56;5063904;28;20238;-72
2023/03/30 02:12:10;;;;;;;;;;;;;;;10.03;100.00;96469.69;5040842;28;20479;-72
2023/03/30 02:14:37;;;;;;;;;;;;;;;10.01;100.00;96460.25;5063405;28;19924;-71
2023/03/30 02:17:06;;;;;;;;;;;;;;;10.01;100.00;96466.53;5059767;28;19916;-68
2023/03/30 02:19:32;;;;;;;;;;;;;;;10.06;100.00;96466.19;5062159;28;19920;-71
2023/03/30 02:21:59;;;;;;;;;;;;;;;10.18;100.00;96459.72;5062697;28;19928;-71
2023/03/30 02:24:26;;;;;;;;;;;;;;;10.18;100.00;96464.41;5056977;28;20502;-72
2023/03/30 02:26:51;;;;;;;;;;;;;;;10.01;100.00;96471.19;5063222;28;19916;-73
2023/03/30 02:29:17;;;;;;;;;;;;;;;10.04;100.00;96484.91;5058610;28;20403;-71
2023/03/30 02:31:44;;;;;;;;;;;;;;;9.98;100.00;96499.31;5063570;28;19931;-72
2023/03/30 02:34:12;;;;;;;;;;;;;;;10.14;100.00;96497.97;5059331;28;19943;-73
2023/03/30 02:36:42;;;;;;;;;;;;;;;10.22;100.00;96498.88;5062811;28;19924;-70
2023/03/30 02:39:15;;;;;;;;;;;;;;;10.05;100.00;96499.41;5042469;28;19921;-71
2023/03/30 02:41:59;;;;;;;;;;;;;;;9.97;100.00;96506.69;5064473;28;19917;-72
2023/03/30 02:44:36;;;;;;;;;;;;;;;9.88;100.00;96496.00;5042553;28;20386;-73
2023/03/30 02:47:02;;;;;;;;;;;;;;;9.80;100.00;96507.22;5065419;28;19969;-74
2023/03/30 02:49:34;;;;;;;;;;;;;;;9.77;100.00;96504.03;5024642;28;19940;-72
2023/03/30 02:52:23;;;;;;;;;;;;;;;9.67;100.00;96503.88;5065118;28;19920;-72
2023/03/30 02:54:57;;;;;;;;;;;;;;;9.65;100.00;96511.66;5039036;28;19925;-70
2023/03/30 02:57:28;;;;;;;;;;;;;;;9.70;100.00;96512.13;5061970;28;20110;-71
2023/03/30 03:00:16;;;;;;;;;;;;;;;9.67;100.00;96528.47;5063725;28;19948;-72
2023/03/30 03:02:43;;;;;;;;;;;;;;;9.85;100.00;96536.97;5055405;28;19952;-72
2023/03/30 03:05:10;;;;;;;;;;;;;;;9.78;100.00;96529.47;5041682;28;19971;-72
2023/03/30 03:07:37;;;;;;;;;;;;;;;9.90;100.00;96521.06;5042980;28;20332;-71
2023/03/30 03:10:03;;;;;;;;;;;;;;;9.28;100.00;96510.25;5041035;28;19925;-69
2023/03/30 03:12:28;;;;;;;;;;;;;;;9.00;100.00;96502.28;5027368;28;19917;-70
2023/03/30 03:14:53;;;;;;;;;;;;;;;8.73;100.00;96485.78;5048513;28;19963;-73
2023/03/30 03:17:21;;;;;;;;;;;;;;;8.58;100.00;96481.97;5043069;28;20385;-72
2023/03/30 03:19:49;;;;;;;;;;;;;;;8.46;100.00;96464.94;5044387;28;19916;-74
2023/03/30 03:22:15;;;;;;;;;;;;;;;8.46;100.00;96449.34;5039214;28;19962;-73
2023/03/30 03:24:40;;;;;;;;;;;;;;;8.49;100.00;96442.41;5045788;28;19917;-72
2023/03/30 03:27:06;;;;;;;;;;;;;;;8.57;100.00;96449.56;5059113;28;20288;-72
2023/03/30 03:29:31;;;;;;;;;;;;;;;8.66;100.00;96446.63;5064167;28;20012;-73
2023/03/30 03:31:56;;;;;;;;;;;;;;;8.82;100.00;96435.63;5064595;28;19921;-71
2023/03/30 03:34:24;;;;;;;;;;;;;;;8.87;100.00;96427.91;5060667;28;20243;-74
2023/03/30 03:36:51;;;;;;;;;;;;;;;8.90;100.00;96421.72;5062209;28;19916;-73
2023/03/30 03:39:16;;;;;;;;;;;;;;;8.89;100.00;96422.09;5057373;28;19916;-72
2023/03/30 03:41:42;;;;;;;;;;;;;;;8.85;100.00;96422.03;5062642;28;20014;-73
2023/03/30 03:44:07;;;;;;;;;;;;;;;8.73;100.00;96424.91;5058589;28;19920;-73
2023/03/30 03:46:32;;;;;;;;;;;;;;;8.71;100.00;96419.03;5061371;28;20004;-74
2023/03/30 03:48:57;;;;;;;;;;;;;;;8.58;100.00;96421.91;5060338;28;19924;-72
2023/03/30 03:51:23;;;;;;;;;;;;;;;8.47;100.00;96409.22;5050917;28;19924;-74
2023/03/30 03:53:48;;;;;;;;;;;;;;;8.45;100.00;96416.97;5053476;28;19983;-73
2023/03/30 03:56:14;;;;;;;;;;;;;;;8.39;100.00;96400.84;5058946;28;19917;-74
2023/03/30 03:58:39;;;;;;;;;;;;;;;8.53;100.00;96392.16;5063435;28;19941;-72
2023/03/30 04:01:04;;;;;;;;;;;;;;;8.65;100.00;96390.44;5059547;28;20385;-70
2023/03/30 04:03:30;;;;;;;;;;;;;;;8.68;100.00;96387.78;5058100;28;20016;-74
2023/03/30 04:05:59;;;;;;;;;;;;;;;8.71;100.00;96391.72;5065132;28;20376;-72
2023/03/30 04:08:24;;;;;;;;;;;;;;;8.74;100.00;96386.31;5043128;28;20489;-75
2023/03/30 04:10:49;;;;;;;;;;;;;;;8.80;100.00;96378.63;5062592;28;20396;-74
2023/03/30 04:13:15;;;;;;;;;;;;;;;8.84;100.00;96374.03;5060777;28;19918;-72
2023/03/30 04:15:41;;;;;;;;;;;;;;;8.92;100.00;96367.53;5076221;28;20006;-72
2023/03/30 04:18:07;;;;;;;;;;;;;;;8.92;100.00;96353.09;5058824;28;19932;-74
2023/03/30 04:20:32;;;;;;;;;;;;;;;8.96;100.00;96351.97;5075310;28;19917;-72
2023/03/30 04:23:00;;;;;;;;;;;;;;;9.00;100.00;96357.50;5068341;28;20364;-71
2023/03/30 04:25:26;;;;;;;;;;;;;;;9.01;100.00;96342.72;5062475;28;20389;-72
2023/03/30 04:27:52;;;;;;;;;;;;;;;9.03;100.00;96324.00;5067079;28;19924;-73
2023/03/30 04:30:18;;;;;;;;;;;;;;;9.15;100.00;96332.00;5059464;28;19920;-71
2023/03/30 04:32:45;;;;;;;;;;;;;;;9.24;100.00;96309.91;5065012;28;19931;-70
2023/03/30 04:35:13;;;;;;;;;;;;;;;9.22;100.00;96309.47;5058987;28;20314;-72
2023/03/30 04:37:41;;;;;;;;;;;;;;;9.27;100.00;96297.44;5063836;28;19920;-71
2023/03/30 04:40:08;;;;;;;;;;;;;;;9.29;100.00;96279.53;5061045;28;19924;-72
2023/03/30 04:42:36;;;;;;;;;;;;;;;9.47;100.00;96270.78;5066825;28;19917;-73
2023/03/30 04:45:02;;;;;;;;;;;;;;;9.55;100.00;96283.41;5066968;28;19916;-72
2023/03/30 04:47:29;;;;;;;;;;;;;;;9.65;100.00;96279.22;5063319;28;19917;-73
2023/03/30 04:49:54;;;;;;;;;;;;;;;9.65;100.00;96274.56;5061340;28;19920;-72
2023/03/30 04:52:19;;;;;;;;;;;;;;;9.69;100.00;96261.72;5061173;28;19946;-72
2023/03/30 04:54:45;;;;;;;;;;;;;;;9.69;100.00;96263.66;5068918;28;19921;-71
2023/03/30 04:57:12;;;;;;;;;;;;;;;9.72;100.00;96269.19;5044712;28;19917;-72
2023/03/30 04:59:38;;;;;;;;;;;;;;;9.75;100.00;96243.03;5067204;28;19982;-71
2023/03/30 05:02:03;;;;;;;;;;;;;;;9.70;100.00;96248.81;5063317;28;20374;-69
2023/03/30 05:04:29;;;;;;;;;;;;;;;9.73;100.00;96235.19;5063885;28;20373;-69
2023/03/30 05:06:56;;;;;;;;;;;;;;;9.65;100.00;96232.72;5064705;28;19920;-73
2023/03/30 05:09:21;;;;;;;;;;;;;;;9.63;100.00;96224.91;4994397;28;1877452;-72
2023/03/30 05:11:47;;;;;;;;;;;;;;;9.68;100.00;96226.53;5066291;28;19924;-72
2023/03/30 05:14:12;;;;;;;;;;;;;;;9.81;100.00;96225.13;5060665;28;19920;-73
2023/03/30 05:16:38;;;;;;;;;;;;;;;9.98;100.00;96222.97;5067590;28;19940;-71
2023/03/30 05:19:03;;;;;;;;;;;;;;;10.07;100.00;96221.50;5045348;28;19916;-70
2023/03/30 05:21:30;;;;;;;;;;;;;;;10.06;100.00;96221.88;5066067;28;19970;-72
2023/03/30 05:23:56;;;;;;;;;;;;;;;10.02;100.00;96218.31;5065389;28;19924;-71
2023/03/30 05:26:22;;;;;;;;;;;;;;;10.00;100.00;96226.91;5043022;28;20366;-73
2023/03/30 05:28:48;;;;;;;;;;;;;;;9.96;100.00;96215.13;5068003;28;19978;-73
2023/03/30 05:31:13;;;;;;;;;;;;;;;9.89;100.00;96213.09;5051715;28;19916;-70
2023/03/30 05:33:39;;;;;;;;;;;;;;;9.89;100.00;96217.78;5077541;28;19928;-71
2023/03/30 05:36:04;;;;;;;;;;;;;;;9.91;100.00;96208.03;5075697;28;19979;-69
2023/03/30 05:38:30;;;;;;;;;;;;;;;10.00;100.00;96215.19;5081061;28;19928;-72
2023/03/30 05:40:57;;;;;;;;;;;;;;;10.13;100.00;96211.78;5056228;28;20274;-71
2023/03/30 05:43:22;;;;;;;;;;;;;;;10.20;100.00;96222.03;5059843;28;22162;-72
2023/03/30 05:45:48;;;;;;;;;;;;;;;10.47;100.00;96206.28;5046410;28;19917;-70
2023/03/30 05:48:13;;;;;;;;;;;;;;;10.53;100.00;96201.22;5055752;28;19912;-72
2023/03/30 05:50:38;;;;;;;;;;;;;;;10.51;100.00;96204.38;5074055;28;20295;-70
2023/03/30 05:53:03;;;;;;;;;;;;;;;10.52;100.00;96197.72;5074326;28;20377;-72
2023/03/30 05:55:29;;;;;;;;;;;;;;;10.60;100.00;96204.03;5074977;28;19979;-71
2023/03/30 05:57:55;;;;;;;;;;;;;;;10.73;100.00;96210.00;5074939;28;20295;-71
2023/03/30 06:00:21;;;;;;;;;;;;;;;10.93;100.00;96204.28;5074085;28;20377;-71
2023/03/30 06:02:47;;;;;;;;;;;;;;;11.13;100.00;96204.78;5074655;28;19920;-70
2023/03/30 06:05:13;;;;;;;;;;;;;;;11.16;100.00;96201.31;5055907;28;19942;-71
2023/03/30 06:07:38;;;;;;;;;;;;;;;11.18;100.00;96216.22;5055541;28;19916;-71
2023/03/30 06:10:04;;;;;;;;;;;;;;;11.14;100.00;96217.34;5073805;28;19961;-71
2023/03/30 06:12:30;;;;;;;;;;;;;;;11.18;100.00;96229.09;5074366;28;20285;-71
2023/03/30 06:14:56;;;;;;;;;;;;;;;11.25;100.00;96229.16;5055676;28;19916;-71
2023/03/30 06:17:21;;;;;;;;;;;;;;;11.30;100.00;96248.00;5072932;28;19917;-71
2023/03/30 06:19:47;;;;;;;;;;;;;;;11.48;100.00;96250.84;5057053;28;20339;-73
2023/03/30 06:22:12;;;;;;;;;;;;;;;11.57;100.00;96270.47;5075399;28;19989;-73
2023/03/30 06:24:37;;;;;;;;;;;;;;;11.52;100.00;96267.31;5073177;28;19966;-72
2023/03/30 06:27:02;;;;;;;;;;;;;;;11.67;100.00;96264.25;5055213;28;20383;-72
2023/03/30 06:29:28;;;;;;;;;;;;;;;11.70;100.00;96262.69;5074011;28;19912;-71
2023/03/30 06:31:53;;;;;;;;;;;;;;;11.82;100.00;96278.81;5073338;28;19920;-72
2023/03/30 06:34:19;;;;;;;;;;;;;;;11.95;100.00;96295.78;5072855;28;19916;-72
2023/03/30 06:36:44;;;;;;;;;;;;;;;12.01;100.00;96283.28;5056174;28;19963;-72
2023/03/30 06:39:10;;;;;;;;;;;;;;;12.09;100.00;96275.06;5074221;28;20345;-70
2023/03/30 06:41:35;;;;;;;;;;;;;;;12.18;100.00;96276.25;5074427;28;20387;-71
2023/03/30 06:44:01;;;;;;;;;;;;;;;12.43;100.00;96268.09;5074747;28;19913;-71
2023/03/30 06:46:26;;;;;;;;;;;;;;;12.48;100.00;96268.88;5072607;28;19919;-71
2023/03/30 06:48:52;;;;;;;;;;;;;;;12.42;100.00;96263.78;5074582;28;19912;-72
2023/03/30 06:51:18;;;;;;;;;;;;;;;12.33;100.00;96257.06;5040041;28;19924;-73
2023/03/30 06:53:43;;;;;;;;;;;;;;;12.22;100.00;96268.03;5073213;28;19968;-73
2023/03/30 06:56:10;;;;;;;;;;;;;;;11.95;100.00;96278.53;5072826;28;19959;-72
2023/03/30 06:58:35;;;;;;;;;;;;;;;11.84;100.00;96257.28;5073208;28;19912;-73
2023/03/30 07:01:09;;;;;;;;;;;;;;;11.90;100.00;96271.44;5072730;28;19927;-72
2023/03/30 07:03:34;;;;;;;;;;;;;;;11.72;100.00;96257.63;5055570;28;19919;-73
2023/03/30 07:05:59;;;;;;;;;;;;;;;11.86;100.00;96246.69;5072963;28;19913;-73
2023/03/30 07:08:24;;;;;;;;;;;;;;;11.89;100.00;96250.66;5073327;28;19918;-72
2023/03/30 07:10:50;;;;;;;;;;;;;;;11.80;100.00;96244.72;5073611;28;19913;-72
2023/03/30 07:13:16;;;;;;;;;;;;;;;11.95;100.00;96243.63;5073747;28;20338;-73
2023/03/30 07:15:42;;;;;;;;;;;;;;;11.98;100.00;96253.84;5071759;28;20372;-71
2023/03/30 07:18:07;;;;;;;;;;;;;;;12.00;100.00;96254.22;5038085;28;19931;-70
2023/03/30 07:20:34;;;;;;;;;;;;;;;12.09;100.00;96251.13;5038559;28;20308;-70
2023/03/30 07:23:00;;;;;;;;;;;;;;;11.80;100.00;96261.97;5073495;28;20290;-72
2023/03/30 07:25:25;;;;;;;;;;;;;;;11.84;100.00;96259.25;5072394;28;19913;-72
2023/03/30 07:27:51;;;;;;;;;;;;;;;11.84;100.00;96286.69;5072967;28;20023;-73
2023/03/30 07:30:16;;;;;;;;;;;;;;;11.80;100.00;96288.63;5073469;28;20124;-72
2023/03/30 07:32:41;;;;;;;;;;;;;;;11.89;100.00;96297.28;5073111;28;19958;-71
2023/03/30 07:35:07;;;;;;;;;;;;;;;11.80;100.00;96292.16;5037706;28;20579;-72
2023/03/30 07:37:33;;;;;;;;;;;;;;;11.57;100.00;96297.91;5071851;28;19923;-71
2023/03/30 07:39:58;;;;;;;;;;;;;;;11.57;100.00;96322.59;5072339;28;19913;-72
2023/03/30 07:42:24;;;;;;;;;;;;;;;11.52;100.00;96316.69;5054817;28;20380;-71
2023/03/30 07:44:50;;;;;;;;;;;;;;;11.62;100.00;96319.47;5073257;28;19962;-72
2023/03/30 07:47:15;;;;;;;;;;;;;;;11.73;100.00;96321.50;5054389;28;20400;-73
2023/03/30 07:49:41;;;;;;;;;;;;;;;11.75;100.00;96328.19;5072487;28;20025;-71
2023/03/30 07:52:06;;;;;;;;;;;;;;;12.04;100.00;96337.38;5072399;28;19912;-73
2023/03/30 07:54:32;;;;;;;;;;;;;;;12.19;100.00;96327.25;5054357;28;19921;-72
2023/03/30 07:56:57;;;;;;;;;;;;;;;12.28;100.00;96332.41;5072382;28;19962;-72
2023/03/30 07:59:23;;;;;;;;;;;;;;;12.32;100.00;96352.41;5072403;28;19920;-72
2023/03/30 08:01:53;;;;;;;;;;;;;;;12.60;100.00;96353.66;5073333;28;19956;-72
2023/03/30 08:04:18;;;;;;;;;;;;;;;12.79;100.00;96366.28;5055243;28;20515;-72
2023/03/30 08:06:44;;;;;;;;;;;;;;;12.69;100.00;96351.34;5072740;28;19917;-72
2023/03/30 08:09:09;;;;;;;;;;;;;;;12.96;100.00;96362.81;5071646;28;20428;-72
2023/03/30 08:11:35;;;;;;;;;;;;;;;13.18;100.00;96374.59;5074561;28;19916;-72
2023/03/30 08:14:01;;;;;;;;;;;;;;;12.86;100.00;96376.53;5056331;28;20377;-72
2023/03/30 08:16:26;;;;;;;;;;;;;;;12.89;100.00;96372.97;5081341;28;19913;-70
2023/03/30 08:18:53;;;;;;;;;;;;;;;12.85;100.00;96364.72;5087800;28;19912;-72
2023/03/30 08:21:24;;;;;;;;;;;;;;;12.84;100.00;96363.16;5068706;28;20327;-72
2023/03/30 08:23:50;;;;;;;;;;;;;;;12.90;100.00;96366.31;5083691;28;19912;-72
2023/03/30 08:26:15;;;;;;;;;;;;;;;12.82;100.00;96371.78;5057331;28;19923;-71
2023/03/30 08:28:40;;;;;;;;;;;;;;;12.82;100.00;96358.06;5055916;28;20528;-70
2023/03/30 08:31:07;;;;;;;;;;;;;;;12.88;100.00;96352.97;5072064;28;20411;-69
2023/03/30 08:33:32;;;;;;;;;;;;;;;12.90;100.00;96350.59;5071563;28;19912;-71
2023/03/30 08:35:58;;;;;;;;;;;;;;;12.91;100.00;96349.44;5071260;28;19912;-71
2023/03/30 08:38:23;;;;;;;;;;;;;;;12.90;100.00;96350.59;5076951;28;19938;-71
2023/03/30 08:40:49;;;;;;;;;;;;;;;12.88;100.00;96339.22;5071275;28;19913;-71
2023/03/30 08:43:20;;;;;;;;;;;;;;;12.59;100.00;96341.13;5071947;28;19912;-71
2023/03/30 08:45:46;;;;;;;;;;;;;;;12.76;100.00;96343.09;5071000;28;20331;-72
2023/03/30 08:48:17;;;;;;;;;;;;;;;12.96;100.00;96346.31;5071688;28;19913;-70
2023/03/30 08:50:46;;;;;;;;;;;;;;;13.13;100.00;96347.50;5071266;28;19920;-70
2023/03/30 08:53:12;;;;;;;;;;;;;;;13.28;100.00;96353.78;5053376;28;20618;-72
2023/03/30 08:55:41;;;;;;;;;;;;;;;13.71;98.95;96347.50;5052992;28;19924;-71
2023/03/30 08:58:08;;;;;;;;;;;;;;;13.80;99.13;96358.09;5054999;28;20335;-70
2023/03/30 09:00:53;;;;;;;;;;;;;;;13.91;98.35;96362.38;5056654;28;19916;-71
2023/03/30 09:03:37;;;;;;;;;;;;;;;13.62;100.00;96355.38;5057270;28;19920;-71
2023/03/30 09:06:08;;;;;;;;;;;;;;;13.33;100.00;96366.38;5060492;28;20336;-72
2023/03/30 09:08:34;;;;;;;;;;;;;;;13.04;100.00;96358.09;5059349;28;19916;-73
2023/03/30 09:11:01;;;;;;;;;;;;;;;12.36;100.00;96368.91;5058819;28;19919;-71
2023/03/30 09:13:37;;;;;;;;;;;;;;;12.02;100.00;96360.91;5075299;28;19923;-71
2023/03/30 09:16:08;;;;;;;;;;;;;;;11.89;100.00;96365.91;5074857;28;19912;-70
2023/03/30 09:18:34;;;;;;;;;;;;;;;11.80;100.00;96373.69;5056944;28;19927;-71
2023/03/30 09:21:01;;;;;;;;;;;;;;;11.90;100.00;96356.50;5061321;28;19919;-73
2023/03/30 09:23:30;;;;;;;;;;;;;;;11.85;100.00;96365.09;5080594;28;19912;-72
2023/03/30 09:26:05;;;;;;;;;;;;;;;11.97;100.00;96374.97;5076533;28;20009;-70
2023/03/30 09:28:41;;;;;;;;;;;;;;;11.93;100.00;96387.91;5058327;28;19916;-73
2023/03/30 09:31:19;;;;;;;;;;;;;;;12.10;100.00;96392.72;5061103;28;19920;-72
2023/03/30 09:34:11;;;;;;;;;;;;;;;12.20;100.00;96394.72;5063440;28;19955;-72
2023/03/30 09:36:38;;;;;;;;;;;;;;;12.25;100.00;96407.28;5059628;28;19912;-70
2023/03/30 09:39:16;;;;;;;;;;;;;;;12.18;100.00;96410.00;5080819;28;20525;-72
2023/03/30 09:41:55;;;;;;;;;;;;;;;12.07;100.00;96423.66;5079956;28;19962;-70
2023/03/30 09:44:39;;;;;;;;;;;;;;;12.02;100.00;96435.78;5057354;28;19939;-72
2023/03/30 09:47:18;;;;;;;;;;;;;;;12.01;100.00;96434.22;5078935;28;19916;-71
2023/03/30 09:49:43;;;;;;;;;;;;;;;12.02;100.00;96435.00;5080481;28;19959;-72
2023/03/30 09:52:18;;;;;;;;;;;;;;;11.98;100.00;96450.66;5059759;28;20285;-72
2023/03/30 09:54:43;;;;;;;;;;;;;;;11.79;100.00;96455.22;5058286;28;19970;-72
2023/03/30 09:57:26;;;;;;;;;;;;;;;11.62;100.00;96456.63;5076005;28;20332;-72
2023/03/30 09:59:55;;;;;;;;;;;;;;;11.67;100.00;96461.00;5057891;28;19938;-71
2023/03/30 10:02:21;;;;;;;;;;;;;;;11.78;100.00;96472.06;5075946;28;19919;-71
2023/03/30 10:04:52;;;;;;;;;;;;;;;12.04;100.00;96476.59;5057723;28;19916;-73
2023/03/30 10:07:27;;;;;;;;;;;;;;;12.23;100.00;96473.56;5057711;28;19970;-73
2023/03/30 10:09:52;;;;;;;;;;;;;;;12.36;100.00;96476.78;5075087;28;19924;-71
2023/03/30 10:12:18;;;;;;;;;;;;;;;12.40;100.00;96474.84;5075741;28;19916;-72
2023/03/30 10:14:44;;;;;;;;;;;;;;;12.55;100.00;96475.72;5075867;28;20296;-73
2023/03/30 10:17:20;;;;;;;;;;;;;;;12.71;100.00;96485.59;5076048;28;19934;-73
2023/03/30 10:19:45;;;;;;;;;;;;;;;12.86;100.00;96492.75;5076457;28;19960;-72
2023/03/30 10:22:18;;;;;;;;;;;;;;;12.83;100.00;96490.75;5079348;28;19912;-73
2023/03/30 10:24:54;;;;;;;;;;;;;;;12.69;100.00;96505.22;5082245;28;19947;-72
2023/03/30 10:27:24;;;;;;;;;;;;;;;12.72;100.00;96523.69;5088799;28;19912;-71
2023/03/30 10:29:51;;;;;;;;;;;;;;;12.71;100.00;96532.31;5051761;28;19938;-71
2023/03/30 10:32:19;;;;;;;;;;;;;;;12.70;100.00;96545.25;5082199;28;19913;-71
2023/03/30 10:34:55;;;;;;;;;;;;;;;12.40;100.00;96553.72;5061208;28;20006;-71
2023/03/30 10:37:40;;;;;;;;;;;;;;;12.30;100.00;96560.72;5058677;28;20257;-72
2023/03/30 10:40:17;;;;;;;;;;;;;;;12.20;100.00;96566.91;5077630;28;19913;-72
2023/03/30 10:42:43;;;;;;;;;;;;;;;12.10;100.00;96570.34;5078149;28;19982;-73
2023/03/30 10:45:26;;;;;;;;;;;;;;;12.08;100.00;96546.00;5088379;28;19920;-70
2023/03/30 10:48:10;;;;;;;;;;;;;;;11.96;100.00;96538.09;5059657;28;19995;-71
2023/03/30 10:50:41;;;;;;;;;;;;;;;11.96;100.00;96541.63;5074778;28;19962;-73
2023/03/30 10:53:07;;;;;;;;;;;;;;;12.01;100.00;96541.28;5075158;28;19920;-72
2023/03/30 10:55:40;;;;;;;;;;;;;;;11.97;100.00;96542.41;5056459;28;19927;-72
2023/03/30 10:58:18;;;;;;;;;;;;;;;11.77;100.00;96542.59;5077539;28;19942;-71
2023/03/30 11:00:56;;;;;;;;;;;;;;;11.83;100.00;96540.31;5076265;28;19981;-71
2023/03/30 11:03:24;;;;;;;;;;;;;;;11.90;100.00;96543.13;5079348;28;19955;-72
2023/03/30 11:05:51;;;;;;;;;;;;;;;11.95;100.00;96534.53;5073033;28;19916;-75
2023/03/30 11:08:23;;;;;;;;;;;;;;;12.04;100.00;96537.75;5091697;28;19912;-72
2023/03/30 11:10:51;;;;;;;;;;;;;;;12.24;100.00;96540.25;5089901;28;19913;-74
2023/03/30 11:13:29;;;;;;;;;;;;;;;12.38;100.00;96548.59;5088632;28;19913;-74
2023/03/30 11:16:00;;;;;;;;;;;;;;;12.54;100.00;96551.06;5077408;28;19917;-72
2023/03/30 11:18:46;;;;;;;;;;;;;;;12.60;100.00;96556.97;5075820;28;19919;-72
2023/03/30 11:21:17;;;;;;;;;;;;;;;12.51;100.00;96564.75;5073489;28;19940;-72
2023/03/30 11:23:56;;;;;;;;;;;;;;;12.33;100.00;96565.44;5072612;28;19913;-71
2023/03/30 11:26:34;;;;;;;;;;;;;;;11.75;100.00;96572.38;5054503;28;19920;-71
2023/03/30 11:29:08;;;;;;;;;;;;;;;11.50;100.00;96574.84;5054564;28;19919;-71
2023/03/30 11:31:43;;;;;;;;;;;;;;;11.52;100.00;96577.22;5072574;28;20377;-71
2023/03/30 11:34:22;;;;;;;;;;;;;;;11.59;100.00;96574.56;5072263;28;20011;-73
2023/03/30 11:37:07;;;;;;;;;;;;;;;11.60;100.00;96565.97;5053556;28;20381;-71
2023/03/30 11:39:33;;;;;;;;;;;;;;;11.78;100.00;96559.84;5071829;28;19935;-74
2023/03/30 11:42:16;;;;;;;;;;;;;;;11.84;100.00;96559.13;5054432;28;20289;-74
2023/03/30 11:44:42;;;;;;;;;;;;;;;11.80;100.00;96568.50;5073500;28;19927;-70
2023/03/30 11:47:13;;;;;;;;;;;;;;;11.72;100.00;96559.41;5072922;28;19916;-72
2023/03/30 11:49:50;;;;;;;;;;;;;;;11.72;100.00;96555.88;5073325;28;20042;-73
2023/03/30 11:52:21;;;;;;;;;;;;;;;11.79;100.00;96559.50;5074123;28;19920;-72
2023/03/30 11:55:04;;;;;;;;;;;;;;;11.72;100.00;96559.41;5056410;28;19924;-70
2023/03/30 11:57:39;;;;;;;;;;;;;;;11.66;100.00;96553.47;5076093;28;19916;-71
2023/03/30 12:00:17;;;;;;;;;;;;;;;11.73;100.00;96560.19;5053982;28;20007;-73
2023/03/30 12:02:42;;;;;;;;;;;;;;;11.82;100.00;96547.75;5074128;28;20296;-73
2023/03/30 12:05:20;;;;;;;;;;;;;;;12.04;100.00;96542.47;5075356;28;19920;-72
2023/03/30 12:07:48;;;;;;;;;;;;;;;12.08;100.00;96542.50;5074510;28;20365;-71
2023/03/30 12:10:23;;;;;;;;;;;;;;;12.01;100.00;96551.44;5073236;28;20018;-74
2023/03/30 12:12:50;;;;;;;;;;;;;;;12.03;100.00;96555.41;5073586;28;20021;-74
2023/03/30 12:15:29;;;;;;;;;;;;;;;12.15;100.00;96554.31;5073980;28;19917;-73
2023/03/30 12:18:10;;;;;;;;;;;;;;;12.00;100.00;96547.91;5056410;28;19916;-73
2023/03/30 12:21:02;;;;;;;;;;;;;;;12.07;100.00;96544.44;5073856;28;19912;-72
2023/03/30 12:23:33;;;;;;;;;;;;;;;12.15;100.00;96553.53;5049809;28;19917;-72
2023/03/30 12:26:05;;;;;;;;;;;;;;;12.08;100.00;96548.75;5071619;28;20027;-72
2023/03/30 12:29:00;;;;;;;;;;;;;;;12.00;100.00;96550.66;5071976;28;19917;-74
2023/03/30 12:31:44;;;;;;;;;;;;;;;12.05;100.00;96546.78;5057918;28;19943;-71
2023/03/30 12:34:09;;;;;;;;;;;;;;;11.93;100.00;96550.59;5074956;28;19920;-70
2023/03/30 12:36:36;;;;;;;;;;;;;;;11.85;100.00;96557.19;5075582;28;20293;-72
2023/03/30 12:39:04;;;;;;;;;;;;;;;11.78;100.00;96563.38;5058179;28;19913;-71
2023/03/30 12:41:49;;;;;;;;;;;;;;;11.57;100.00;96579.63;5076152;28;19921;-73
2023/03/30 12:44:31;;;;;;;;;;;;;;;11.60;100.00;96587.13;5076310;28;20748;-73
2023/03/30 12:47:03;;;;;;;;;;;;;;;11.53;100.00;96603.50;5074897;28;19987;-72
2023/03/30 12:49:38;;;;;;;;;;;;;;;11.39;100.00;96607.63;5075225;28;19912;-73
2023/03/30 12:52:03;;;;;;;;;;;;;;;11.29;100.00;96589.91;5075334;28;20060;-72